createdAt,value
2022-12-25T00:01:50.274Z,6.20
2022-12-25T00:04:16.856Z,6.10
2022-12-25T00:06:43.701Z,6.00
2022-12-25T00:09:10.508Z,5.80
2022-12-25T00:11:40.713Z,5.80
2022-12-25T00:14:07.414Z,5.70
2022-12-25T00:16:34.242Z,5.60
2022-12-25T00:19:01.504Z,5.40
2022-12-25T00:21:28.786Z,5.20
2022-12-25T00:23:57.713Z,5.10
2022-12-25T00:26:25.549Z,5.00
2022-12-25T00:28:57.152Z,4.90
2022-12-25T00:31:24.921Z,4.90
2022-12-25T00:33:52.366Z,4.70
2022-12-25T00:36:21.266Z,4.70
2022-12-25T00:38:48.328Z,4.50
2022-12-25T00:41:17.764Z,4.50
2022-12-25T00:43:44.433Z,4.40
2022-12-25T00:46:13.250Z,4.40
2022-12-25T00:48:40.610Z,4.30
2022-12-25T00:51:10.624Z,4.20
2022-12-25T00:53:37.120Z,4.10
2022-12-25T00:56:06.457Z,4.10
2022-12-25T00:58:34.146Z,3.80
2022-12-25T01:01:01.321Z,4.00
2022-12-25T01:03:28.297Z,3.90
2022-12-25T01:06:03.894Z,3.80
2022-12-25T01:08:32.738Z,3.70
2022-12-25T01:11:02.007Z,3.70
2022-12-25T01:13:29.415Z,3.70
2022-12-25T01:15:56.124Z,3.60
2022-12-25T01:18:25.597Z,3.60
2022-12-25T01:20:52.302Z,3.50
2022-12-25T01:23:18.916Z,3.40
2022-12-25T01:25:45.452Z,3.30
2022-12-25T01:28:12.064Z,3.30
2022-12-25T01:30:39.641Z,3.20
2022-12-25T01:33:06.433Z,3.20
2022-12-25T01:35:32.957Z,3.20
2022-12-25T01:37:59.616Z,3.00
2022-12-25T01:40:26.130Z,3.10
2022-12-25T01:42:53.138Z,3.00
2022-12-25T01:45:44.546Z,2.70
2022-12-25T01:48:18.211Z,2.70
2022-12-25T01:50:50.414Z,2.70
2022-12-25T01:53:17.121Z,2.70
2022-12-25T01:55:45.684Z,2.60
2022-12-25T01:58:12.537Z,2.70
2022-12-25T02:00:39.130Z,2.70
2022-12-25T02:03:06.441Z,2.70
2022-12-25T02:05:35.041Z,2.60
2022-12-25T02:08:08.129Z,2.50
2022-12-25T02:10:34.682Z,2.40
2022-12-25T02:13:02.075Z,2.40
2022-12-25T02:15:38.836Z,2.40
2022-12-25T02:18:16.798Z,2.30
2022-12-25T02:20:56.717Z,2.30
2022-12-25T02:23:42.171Z,2.20
2022-12-25T02:26:47.704Z,2.20
2022-12-25T02:29:33.184Z,2.20
2022-12-25T02:32:10.550Z,2.00
2022-12-25T02:35:07.554Z,2.10
2022-12-25T02:37:42.365Z,2.10
2022-12-25T02:40:18.627Z,2.00
2022-12-25T02:43:08.754Z,2.00
2022-12-25T02:46:01.062Z,1.90
2022-12-25T02:48:50.680Z,1.90
2022-12-25T02:51:38.994Z,1.80
2022-12-25T02:54:29.554Z,1.70
2022-12-25T02:57:16.700Z,1.70
2022-12-25T03:00:05.114Z,1.80
2022-12-25T03:02:52.639Z,1.70
2022-12-25T03:05:40.361Z,1.70
2022-12-25T03:08:11.526Z,1.60
2022-12-25T03:11:02.959Z,1.60
2022-12-25T03:13:34.558Z,1.60
2022-12-25T03:16:19.813Z,1.50
2022-12-25T03:18:46.680Z,1.50
2022-12-25T03:21:31.788Z,1.50
2022-12-25T03:24:20.576Z,1.50
2022-12-25T03:26:56.450Z,1.40
2022-12-25T03:29:50.962Z,1.30
2022-12-25T03:32:43.105Z,1.20
2022-12-25T03:35:29.718Z,1.20
2022-12-25T03:38:29.838Z,1.20
2022-12-25T03:41:38.321Z,1.20
2022-12-25T03:44:50.794Z,1.10
2022-12-25T03:47:35.461Z,1.10
2022-12-25T03:50:27.940Z,1.10
2022-12-25T03:53:15.781Z,1.10
2022-12-25T03:56:02.838Z,1.10
2022-12-25T03:58:47.918Z,1.10
2022-12-25T04:01:33.041Z,1.00
2022-12-25T04:04:18.844Z,1.00
2022-12-25T04:07:04.176Z,0.90
2022-12-25T04:09:49.197Z,0.90
2022-12-25T04:12:34.390Z,0.90
2022-12-25T04:15:19.835Z,0.90
2022-12-25T04:18:05.138Z,0.90
2022-12-25T04:20:50.554Z,0.90
2022-12-25T04:23:35.851Z,0.90
2022-12-25T04:26:20.770Z,0.90
2022-12-25T04:29:05.677Z,0.90
2022-12-25T04:31:50.450Z,0.90
2022-12-25T04:34:35.476Z,0.80
2022-12-25T04:37:02.043Z,0.80
2022-12-25T04:39:28.628Z,0.90
2022-12-25T04:41:55.224Z,0.80
2022-12-25T04:44:21.682Z,0.80
2022-12-25T04:46:48.429Z,0.80
2022-12-25T04:49:15.114Z,0.80
2022-12-25T04:51:41.848Z,0.80
2022-12-25T04:54:08.364Z,0.80
2022-12-25T04:56:40.062Z,0.80
2022-12-25T04:59:10.079Z,0.80
2022-12-25T05:01:36.830Z,0.80
2022-12-25T05:04:03.573Z,0.70
2022-12-25T05:06:30.229Z,0.70
2022-12-25T05:08:56.758Z,0.70
2022-12-25T05:11:23.286Z,0.70
2022-12-25T05:13:49.852Z,0.70
2022-12-25T05:16:18.812Z,0.70
2022-12-25T05:18:48.391Z,0.70
2022-12-25T05:21:15.497Z,0.50
2022-12-25T05:23:48.658Z,0.70
2022-12-25T05:26:17.304Z,0.70
2022-12-25T05:28:44.041Z,0.70
2022-12-25T05:31:11.358Z,0.70
2022-12-25T05:33:38.042Z,0.60
2022-12-25T05:36:06.533Z,0.60
2022-12-25T05:38:33.565Z,0.60
2022-12-25T05:41:00.361Z,0.50
2022-12-25T05:43:28.491Z,0.40
2022-12-25T05:45:55.364Z,0.50
2022-12-25T05:48:22.148Z,0.50
2022-12-25T05:50:49.015Z,0.60
2022-12-25T05:53:17.595Z,0.60
2022-12-25T05:55:44.342Z,0.50
2022-12-25T05:58:12.054Z,0.50
2022-12-25T06:00:41.364Z,0.60
2022-12-25T06:03:08.107Z,0.50
2022-12-25T06:05:37.745Z,0.50
2022-12-25T06:08:04.463Z,0.50
2022-12-25T06:10:33.587Z,0.50
2022-12-25T06:13:00.938Z,0.40
2022-12-25T06:15:27.741Z,0.50
2022-12-25T06:17:54.358Z,0.50
2022-12-25T06:20:20.982Z,0.50
2022-12-25T06:22:47.798Z,0.50
2022-12-25T06:25:14.680Z,0.50
2022-12-25T06:27:41.242Z,0.40
2022-12-25T06:30:08.553Z,0.50
2022-12-25T06:32:35.173Z,0.40
2022-12-25T06:35:01.769Z,0.40
2022-12-25T06:37:28.461Z,0.40
2022-12-25T06:39:55.158Z,0.50
2022-12-25T06:42:21.773Z,0.50
2022-12-25T06:44:48.300Z,0.50
2022-12-25T06:47:14.944Z,0.50
2022-12-25T06:49:41.689Z,0.40
2022-12-25T06:52:08.293Z,0.50
2022-12-25T06:54:34.853Z,0.50
2022-12-25T06:57:01.434Z,0.40
2022-12-25T06:59:27.992Z,0.50
2022-12-25T07:01:56.681Z,0.40
2022-12-25T07:04:28.339Z,0.40
2022-12-25T07:06:54.871Z,0.40
2022-12-25T07:09:23.643Z,0.40
2022-12-25T07:11:50.259Z,0.50
2022-12-25T07:14:24.416Z,0.40
2022-12-25T07:16:54.611Z,0.40
2022-12-25T07:19:21.749Z,0.30
2022-12-25T07:21:48.475Z,0.40
2022-12-25T07:24:20.588Z,0.40
2022-12-25T07:26:47.923Z,0.40
2022-12-25T07:29:14.573Z,0.50
2022-12-25T07:31:41.472Z,0.80
2022-12-25T07:34:08.241Z,0.70
2022-12-25T07:36:34.915Z,0.80
2022-12-25T07:39:01.716Z,0.80
2022-12-25T07:41:29.571Z,0.90
2022-12-25T07:43:56.239Z,1.00
2022-12-25T07:46:23.476Z,1.10
2022-12-25T07:48:50.101Z,1.10
2022-12-25T07:51:16.704Z,1.10
2022-12-25T07:53:44.394Z,1.30
2022-12-25T07:56:16.905Z,1.30
2022-12-25T07:58:44.627Z,1.40
2022-12-25T08:01:18.386Z,1.40
2022-12-25T08:03:49.752Z,1.50
2022-12-25T08:06:16.489Z,1.60
2022-12-25T08:08:43.022Z,1.60
2022-12-25T08:11:10.680Z,1.50
2022-12-25T08:13:37.627Z,1.70
2022-12-25T08:16:07.969Z,1.90
2022-12-25T08:18:37.076Z,1.90
2022-12-25T08:21:12.195Z,1.90
2022-12-25T08:23:41.546Z,2.00
2022-12-25T08:26:10.767Z,2.20
2022-12-25T08:28:37.796Z,2.20
2022-12-25T08:31:17.104Z,2.40
2022-12-25T08:33:44.300Z,2.40
2022-12-25T08:36:12.484Z,2.50
2022-12-25T08:38:39.761Z,2.50
2022-12-25T08:41:06.907Z,2.70
2022-12-25T08:43:33.935Z,2.70
2022-12-25T08:46:00.621Z,2.70
2022-12-25T08:48:27.619Z,2.70
2022-12-25T08:50:54.587Z,2.80
2022-12-25T08:53:21.959Z,2.90
2022-12-25T08:55:48.966Z,3.00
2022-12-25T08:58:16.872Z,3.10
2022-12-25T09:00:43.409Z,3.20
2022-12-25T09:03:10.007Z,3.30
2022-12-25T09:05:37.372Z,3.30
2022-12-25T09:08:06.784Z,3.30
2022-12-25T09:10:37.115Z,3.40
2022-12-25T09:13:05.833Z,3.40
2022-12-25T09:15:32.643Z,3.40
2022-12-25T09:18:00.267Z,3.40
2022-12-25T09:20:28.248Z,3.40
2022-12-25T09:22:54.759Z,3.50
2022-12-25T09:25:21.255Z,3.60
2022-12-25T09:27:47.953Z,3.70
2022-12-25T09:30:15.189Z,3.80
2022-12-25T09:32:44.674Z,3.80
2022-12-25T09:35:13.927Z,3.90
2022-12-25T09:37:40.978Z,3.90
2022-12-25T09:40:08.422Z,3.90
2022-12-25T09:42:35.231Z,4.00
2022-12-25T09:45:10.945Z,4.20
2022-12-25T09:47:42.012Z,4.30
2022-12-25T09:50:46.032Z,4.40
2022-12-25T09:53:19.034Z,4.50
2022-12-25T09:56:19.354Z,4.60
2022-12-25T09:58:45.886Z,4.60
2022-12-25T10:01:14.646Z,4.80
2022-12-25T10:03:59.650Z,4.90
2022-12-25T10:06:56.680Z,4.70
2022-12-25T10:09:39.053Z,4.90
2022-12-25T10:12:27.505Z,5.10
2022-12-25T10:15:23.058Z,5.00
2022-12-25T10:18:03.551Z,5.00
2022-12-25T10:20:53.204Z,5.10
2022-12-25T10:23:25.570Z,5.30
2022-12-25T10:25:53.812Z,5.20
2022-12-25T10:28:34.005Z,5.30
2022-12-25T10:31:23.553Z,5.10
2022-12-25T10:33:59.499Z,5.10
2022-12-25T10:36:39.667Z,5.20
2022-12-25T10:39:06.229Z,5.40
2022-12-25T10:41:54.294Z,5.40
2022-12-25T10:44:24.570Z,5.50
2022-12-25T10:46:55.091Z,5.40
2022-12-25T10:49:25.368Z,5.50
2022-12-25T10:51:52.220Z,5.50
2022-12-25T10:54:21.931Z,5.40
2022-12-25T10:57:00.763Z,5.40
2022-12-25T10:59:29.581Z,5.60
2022-12-25T11:02:03.515Z,5.50
2022-12-25T11:04:37.408Z,5.70
2022-12-25T11:07:13.307Z,5.50
2022-12-25T11:09:41.041Z,5.70
2022-12-25T11:12:18.110Z,5.70
2022-12-25T11:14:56.910Z,6.00
2022-12-25T11:17:25.629Z,6.00
2022-12-25T11:19:55.130Z,6.00
2022-12-25T11:22:25.256Z,6.10
2022-12-25T11:24:52.199Z,6.00
2022-12-25T11:27:24.793Z,6.10
2022-12-25T11:30:03.568Z,6.20
2022-12-25T11:32:43.622Z,6.10
2022-12-25T11:35:16.102Z,6.10
2022-12-25T11:37:49.580Z,6.20
2022-12-25T11:40:20.759Z,6.10
2022-12-25T11:42:57.480Z,6.20
2022-12-25T11:45:33.484Z,6.10
2022-12-25T11:48:03.308Z,6.10
2022-12-25T11:50:41.106Z,6.20
2022-12-25T11:53:35.095Z,6.20
2022-12-25T11:56:06.967Z,6.10
2022-12-25T11:58:38.785Z,6.10
2022-12-25T12:01:26.801Z,5.90
2022-12-25T12:03:54.583Z,5.90
2022-12-25T12:06:32.969Z,6.00
2022-12-25T12:09:36.443Z,6.00
2022-12-25T12:12:17.029Z,5.90
2022-12-25T12:14:55.855Z,5.90
2022-12-25T12:17:22.403Z,5.90
2022-12-25T12:19:50.145Z,5.90
2022-12-25T12:22:23.892Z,6.00
2022-12-25T12:25:04.478Z,6.10
2022-12-25T12:27:36.606Z,6.10
2022-12-25T12:30:05.764Z,6.00
2022-12-25T12:32:42.299Z,6.10
2022-12-25T12:35:11.716Z,6.10
2022-12-25T12:37:40.807Z,6.10
2022-12-25T12:40:27.363Z,6.10
2022-12-25T12:42:56.970Z,6.20
2022-12-25T12:45:28.045Z,6.20
2022-12-25T12:47:55.441Z,6.20
2022-12-25T12:50:41.187Z,6.20
2022-12-25T12:53:23.508Z,6.20
2022-12-25T12:55:52.443Z,6.20
2022-12-25T12:58:33.716Z,6.20
2022-12-25T13:01:23.999Z,6.10
2022-12-25T13:04:06.385Z,6.00
2022-12-25T13:06:40.784Z,6.20
2022-12-25T13:09:45.357Z,6.20
2022-12-25T13:12:15.513Z,6.20
2022-12-25T13:14:51.141Z,6.20
2022-12-25T13:17:23.550Z,6.10
2022-12-25T13:20:00.637Z,6.10
2022-12-25T13:22:33.454Z,6.10
2022-12-25T13:25:02.880Z,6.20
2022-12-25T13:27:31.573Z,6.20
2022-12-25T13:29:59.273Z,6.20
2022-12-25T13:32:30.864Z,6.20
2022-12-25T13:34:58.438Z,6.20
2022-12-25T13:37:27.645Z,6.00
2022-12-25T13:39:58.980Z,6.00
2022-12-25T13:42:28.714Z,6.00
2022-12-25T13:44:58.647Z,6.00
2022-12-25T13:47:28.777Z,6.00
2022-12-25T13:49:57.235Z,6.00
2022-12-25T13:52:36.234Z,6.00
2022-12-25T13:55:10.953Z,6.00
2022-12-25T13:57:39.925Z,5.90
2022-12-25T14:00:08.871Z,5.90
2022-12-25T14:02:38.073Z,5.90
2022-12-25T14:05:32.399Z,6.00
2022-12-25T14:08:17.205Z,6.00
2022-12-25T14:10:46.381Z,5.90
2022-12-25T14:13:15.465Z,6.00
2022-12-25T14:15:43.089Z,5.90
2022-12-25T14:18:15.888Z,6.00
2022-12-25T14:20:59.082Z,5.90
2022-12-25T14:23:25.892Z,5.90
2022-12-25T14:25:52.915Z,5.90
2022-12-25T14:28:23.828Z,5.90
2022-12-25T14:30:51.033Z,5.90
2022-12-25T14:33:21.082Z,5.80
2022-12-25T14:35:48.466Z,5.80
2022-12-25T14:38:29.665Z,5.80
2022-12-25T14:41:00.895Z,5.80
2022-12-25T14:43:28.686Z,5.80
2022-12-25T14:46:06.973Z,5.90
2022-12-25T14:48:36.355Z,5.90
2022-12-25T14:51:15.749Z,5.90
2022-12-25T14:53:51.717Z,5.90
2022-12-25T14:56:23.055Z,5.80
2022-12-25T14:58:53.232Z,5.90
2022-12-25T15:01:23.486Z,5.90
2022-12-25T15:03:50.729Z,5.80
2022-12-25T15:06:27.779Z,5.90
2022-12-25T15:09:00.373Z,5.80
2022-12-25T15:11:27.731Z,5.90
2022-12-25T15:13:54.827Z,5.90
2022-12-25T15:16:28.745Z,5.80
2022-12-25T15:18:55.521Z,5.90
2022-12-25T15:21:26.466Z,5.90
2022-12-25T15:23:58.040Z,6.00
2022-12-25T15:26:26.417Z,6.00
2022-12-25T15:28:55.794Z,6.00
2022-12-25T15:31:33.263Z,6.10
2022-12-25T15:34:02.411Z,6.20
2022-12-25T15:36:30.172Z,6.20
2022-12-25T15:38:56.915Z,6.20
2022-12-25T15:41:48.442Z,6.20
2022-12-25T15:44:16.599Z,6.20
2022-12-25T15:46:43.443Z,6.20
2022-12-25T15:49:11.568Z,6.20
2022-12-25T15:51:38.790Z,6.30
2022-12-25T15:54:05.567Z,6.30
2022-12-25T15:56:40.802Z,6.40
2022-12-25T15:59:09.211Z,6.30
2022-12-25T16:01:36.381Z,6.50
2022-12-25T16:04:04.509Z,6.50
2022-12-25T16:06:31.018Z,6.50
2022-12-25T16:08:57.537Z,6.40
2022-12-25T16:11:24.241Z,6.60
2022-12-25T16:13:50.908Z,6.50
2022-12-25T16:16:17.540Z,6.60
2022-12-25T16:18:47.739Z,6.70
2022-12-25T16:21:17.489Z,6.60
2022-12-25T16:23:44.036Z,6.60
2022-12-25T16:26:12.936Z,6.70
2022-12-25T16:28:39.716Z,6.70
2022-12-25T16:31:06.340Z,6.80
2022-12-25T16:33:33.093Z,6.80
2022-12-25T16:36:00.060Z,6.80
2022-12-25T16:38:26.770Z,6.80
2022-12-25T16:40:59.225Z,6.80
2022-12-25T16:43:25.770Z,6.80
2022-12-25T16:45:52.634Z,6.80
2022-12-25T16:48:20.342Z,7.00
2022-12-25T16:50:47.146Z,6.90
2022-12-25T16:53:13.873Z,6.90
2022-12-25T16:55:40.566Z,6.90
2022-12-25T16:58:07.176Z,7.00
2022-12-25T17:00:33.883Z,7.10
2022-12-25T17:03:01.122Z,7.00
2022-12-25T17:05:27.876Z,7.10
2022-12-25T17:07:54.562Z,7.00
2022-12-25T17:10:21.501Z,7.10
2022-12-25T17:12:48.095Z,7.10
2022-12-25T17:15:16.194Z,7.10
2022-12-25T17:17:42.751Z,7.10
2022-12-25T17:20:09.625Z,7.10
2022-12-25T17:22:36.255Z,7.20
2022-12-25T17:25:02.825Z,7.20
2022-12-25T17:27:29.332Z,7.20
2022-12-25T17:29:55.832Z,7.20
2022-12-25T17:32:22.505Z,7.20
2022-12-25T17:34:49.245Z,7.30
2022-12-25T17:37:15.909Z,7.20
2022-12-25T17:39:42.594Z,7.20
2022-12-25T17:42:09.096Z,7.20
2022-12-25T17:44:36.990Z,7.30
2022-12-25T17:47:03.963Z,7.30
2022-12-25T17:49:31.195Z,7.30
2022-12-25T17:51:59.042Z,7.30
2022-12-25T17:54:25.944Z,7.20
2022-12-25T17:56:52.619Z,7.30
2022-12-25T17:59:19.377Z,7.30
2022-12-25T18:01:47.370Z,7.30
2022-12-25T18:04:14.229Z,7.30
2022-12-25T18:06:41.902Z,7.30
2022-12-25T18:09:09.880Z,7.30
2022-12-25T18:11:42.294Z,7.30
2022-12-25T18:14:13.557Z,7.30
2022-12-25T18:16:43.537Z,7.30
2022-12-25T18:19:16.185Z,7.30
2022-12-25T18:21:43.049Z,7.40
2022-12-25T18:24:09.927Z,7.40
2022-12-25T18:26:37.064Z,7.40
2022-12-25T18:29:03.897Z,7.40
2022-12-25T18:31:30.945Z,7.40
2022-12-25T18:33:58.988Z,7.50
2022-12-25T18:36:28.179Z,7.50
2022-12-25T18:38:56.010Z,7.50
2022-12-25T18:41:23.371Z,7.50
2022-12-25T18:43:53.159Z,7.50
2022-12-25T18:46:24.801Z,7.50
2022-12-25T18:48:55.001Z,7.50
2022-12-25T18:51:21.788Z,7.60
2022-12-25T18:53:48.497Z,7.60
2022-12-25T18:56:18.835Z,7.60
2022-12-25T18:58:47.544Z,7.60
2022-12-25T19:01:22.862Z,7.60
2022-12-25T19:03:57.202Z,7.60
2022-12-25T19:06:29.226Z,7.60
2022-12-25T19:08:57.012Z,7.70
2022-12-25T19:11:23.959Z,7.70
2022-12-25T19:13:50.769Z,7.70
2022-12-25T19:16:17.971Z,7.70
2022-12-25T19:18:44.518Z,7.80
2022-12-25T19:21:11.293Z,7.80
2022-12-25T19:23:38.638Z,7.80
2022-12-25T19:26:07.015Z,7.80
2022-12-25T19:28:33.688Z,7.80
2022-12-25T19:31:02.325Z,7.80
2022-12-25T19:33:31.887Z,7.80
2022-12-25T19:36:06.157Z,7.80
2022-12-25T19:38:34.545Z,7.80
2022-12-25T19:41:07.948Z,7.90
2022-12-25T19:43:40.783Z,7.90
2022-12-25T19:46:10.514Z,7.90
2022-12-25T19:48:37.689Z,7.90
2022-12-25T19:51:05.010Z,7.90
2022-12-25T19:53:31.592Z,7.90
2022-12-25T19:56:01.694Z,8.00
2022-12-25T19:58:28.518Z,8.00
2022-12-25T20:01:05.282Z,8.00
2022-12-25T20:03:33.295Z,8.00
2022-12-25T20:06:02.076Z,8.00
2022-12-25T20:08:28.949Z,8.10
2022-12-25T20:10:55.644Z,8.00
2022-12-25T20:13:22.582Z,8.10
2022-12-25T20:15:49.266Z,8.10
2022-12-25T20:18:37.246Z,8.10
2022-12-25T20:24:18.062Z,8.20
2022-12-25T20:26:51.483Z,8.30
2022-12-25T20:29:57.729Z,8.30
2022-12-25T20:32:54.878Z,8.20
2022-12-25T20:35:48.056Z,8.20
2022-12-25T20:38:15.635Z,8.30
2022-12-25T20:41:25.847Z,8.30
2022-12-25T20:43:45.734Z,8.30
2022-12-25T20:46:13.307Z,8.30
2022-12-25T20:48:45.907Z,8.40
2022-12-25T20:51:18.678Z,8.40
2022-12-25T20:53:46.343Z,8.40
2022-12-25T20:56:15.209Z,8.40
2022-12-25T20:58:44.562Z,8.40
2022-12-25T21:01:13.750Z,8.40
2022-12-25T21:03:41.436Z,8.40
2022-12-25T21:06:11.721Z,8.40
2022-12-25T21:08:39.383Z,8.40
2022-12-25T21:11:06.507Z,8.40
2022-12-25T21:13:37.147Z,8.50
2022-12-25T21:16:09.698Z,8.50
2022-12-25T21:18:36.340Z,8.50
2022-12-25T21:21:06.627Z,8.60
2022-12-25T21:23:35.235Z,8.50
2022-12-25T21:26:13.182Z,8.50
2022-12-25T21:28:39.712Z,8.60
2022-12-25T21:31:07.791Z,8.50
2022-12-25T21:33:53.068Z,8.50
2022-12-25T21:36:31.858Z,8.60
2022-12-25T21:39:06.604Z,8.60
2022-12-25T21:41:37.461Z,8.60
2022-12-25T21:44:04.597Z,8.60
2022-12-25T21:46:31.653Z,8.60
2022-12-25T21:48:59.354Z,8.60
2022-12-25T21:51:47.668Z,8.60
2022-12-25T21:54:15.600Z,8.70
2022-12-25T21:56:45.379Z,8.70
2022-12-25T21:59:17.759Z,8.70
2022-12-25T22:01:48.278Z,8.80
2022-12-25T22:04:16.495Z,8.80
2022-12-25T22:07:03.306Z,8.80
2022-12-25T22:09:30.188Z,8.80
2022-12-25T22:12:15.286Z,8.90
2022-12-25T22:14:55.251Z,8.80
2022-12-25T22:17:46.704Z,8.90
2022-12-25T22:20:28.415Z,8.90
2022-12-25T22:22:58.518Z,8.90
2022-12-25T22:25:27.648Z,9.00
2022-12-25T22:27:57.037Z,9.00
2022-12-25T22:30:32.523Z,9.00
2022-12-25T22:32:59.223Z,9.00
2022-12-25T22:36:02.773Z,9.00
2022-12-25T22:38:53.023Z,9.10
2022-12-25T22:42:30.945Z,9.10
2022-12-25T22:48:08.075Z,9.20
2022-12-25T22:51:38.134Z,9.10
2022-12-25T22:54:05.092Z,9.20
2022-12-25T22:56:46.931Z,9.20
2022-12-25T22:59:26.764Z,9.30
2022-12-25T23:02:11.364Z,9.30
2022-12-25T23:05:14.872Z,9.30
2022-12-25T23:07:49.132Z,9.40
2022-12-25T23:10:26.611Z,9.30
2022-12-25T23:13:11.769Z,9.30
2022-12-25T23:18:56.112Z,9.30
2022-12-25T23:21:45.676Z,9.40
2022-12-25T23:24:31.157Z,9.40
2022-12-25T23:27:01.306Z,9.40
2022-12-25T23:29:55.433Z,9.50
2022-12-25T23:32:27.755Z,9.50
2022-12-25T23:34:57.084Z,9.50
2022-12-25T23:37:27.423Z,9.60
2022-12-25T23:40:03.176Z,9.50
2022-12-25T23:42:42.962Z,9.60
2022-12-25T23:45:22.240Z,9.60
2022-12-25T23:47:53.306Z,9.50
2022-12-25T23:50:25.503Z,9.60
2022-12-25T23:56:01.810Z,9.50
2022-12-25T23:58:46.095Z,9.60
